Terminal Aerodrome Forecast
Issued by NWS

Home | Current Version | Previous Version | Text Only | Print | Product List | Glossary On
Versions: 1 2 3 4 5 6 7 8 9 10 11 12 13 14 15 16 17
000
FTUS44 KBMX 031133
TAFANB
TAF
KANB 031133Z 0312/0412 19004KT 6SM -RA BR SCT035 BKN110
      TEMPO 0312/0313 4SM -RA BR
     FM031400 27002KT P6SM BKN120
     FM031800 32005KT P6SM VCTS SCT040CB BKN250=

USA.gov is the U.S. government's official web portal to all federal, state and local government web resources and services.